Redwood City, CA

9:40 AM PDT on September 19, 2014 (GMT -0700)
San Carlos | Change Station
CLOSE
Current Station
Airport
Location: San Carlos,
Elevation: 3 ft
Nearby Weather Stations

Elev 3 ft 37.51 °N, 122.25 °W | Updated 6 minutes ago

Mostly Cloudy
Mostly Cloudy
64 °F
Feels Like 64 °F
N
0
Wind Variable Wind from North

Today
High -- | Low -- °F
--% Chance of Precip.
Yesterday
High -- | Low -- °F
Precip. -- in
6:54 AM 7:10 PM
Waning Crescent, 18% visible
Pressure 29.93 in
Visibility 9.0 miles
Clouds Scattered Clouds 900 ft
Dew Point 61 °F
Humidity 88%
Rainfall 0.00 in
Snow Depth 1 in , 0 in , 0 in
UV 3 out of 12
Pollen 4.70 out of 12
Ozone Good
PM2.5 Good
Flu Activity Not available.
SPECI KSQL 191634Z 00000KT 9SM SCT009 18/16 A2993

More Conditions Fewer Conditions

Pressure 29.93 in
Visibility 9.0 miles
Clouds Scattered Clouds 900 ft
Dew Point 61 °F
Humidity 88%
Rainfall 0.00 in
Snow Depth 1 in , 0 in , 0 in
UV 3 out of 12
Pollen 4.70 out of 12
Ozone Good
PM2.5 Good
Flu Activity Not available.
SPECI KSQL 191634Z 00000KT 9SM SCT009 18/16 A2993

More Conditions Fewer Conditions

10-Day Weather Forecast

Almanac

Astronomy

Sep. 19, 2014 Rise Set
Actual Time 6:54 AM PDT 7:10 PM PDT
Civil Twilight 6:28 AM PDT 7:36 PM PDT
Nautical Twilight 5:57 AM PDT 8:07 PM PDT
Astronomical Twilight 5:26 AM PDT 8:38 PM PDT
Moon 2:48 AM PDT 4:38 PM PDT
Length of Visible Light 13h 08m
Length of Day
12h 16m
Tomorrow will be 2m 23s shorter.
Waning Crescent, 18% of the Moon is Illuminated
Today
Waning Crescent
Sep 24
New
Oct 1
First Quarter
Oct 8
Full
Oct 15
Last Quarter

Today's Extremes

State Highs State Lows

Community

WunderPhotos

Upload Photos

1,754,650 photos uploaded!

WunderBlogs® & News

By Dr. Jeff Masters
Director of Meteorology, Weather Underground
By Kari Strenfel
Meteorologist, Weather Underground
By Christopher C. Burt
Weather Historian, Weather Underground
September 19, 2014
September 19, 2014
September 19, 2014

Nearby

Air Quality

  Air Quality AQ Index Pollutant
Yesterday Good
OZONE
Yesterday Good
PM2.5
Current Good
PM2.5
Current Good
OZONE
Friday Good
OZONE
Saturday Moderate
PM2.5
Sunday Moderate
PM2.5
Monday Good
PM2.5
Tuesday Good
PM2.5

Snow Depth

Station Depth Elevation
Spratt Creek 1 in 6200 ft
Independence Camp 0 in 7000 ft
Sonora Pass 0 in 8800 ft
Heavenly Valley 0 in 8850 ft
Tahoe City Cross 0 in 6750 ft

Earthquake Activity

City Distance Mag. Time & Date
Livermore, California 30 miles 2.6 3:37 AM PDT
2014-09-19
The Geysers, California 89 miles 2.5 11:29 PM PDT
2014-09-17
Cobb, California 92 miles 2.7 1:23 PM PDT
2014-09-16
Minimum magnitude displayed is 2.5.

Coastal Water Temperatures

Place Temperature
No Stations Reporting

Nearby Weather Stations